15°C Temp
3°C Dewpoint
% Humidity
Temperature
13 KM/H
8 MPH
7 KTS
330°
North North
West

Wind Speed
Clear
Conditions
Pressure 1027.92 (hPa) - 30.35 (in)
Visibility 6.2 (mi) - 10.0 (km)

Current Conditions
EPKT
Location 6km (3.2mi)
Metar :EPKT 181530Z 33007KT 300V360 CAVOK 15/03 Q1028
Fri 18th September 17:30 pm

Airport
  Metar Aviation API Data Provided by https://www.checkwx.com/ CSS/SVG/PHP scripts by weather34.com © 2015-2020